Time;durP1;ratioP1;P1;durP2;ratioP2;P2;SDS_P1;SDS_P2;PMS_P1;PMS_P2;Temp;Humidity;BMP_temperature;BMP_pressure;BME280_temperature;BME280_humidity;BME280_pressure;Samples;Min_cycle;Max_cycle;Signal;HPM_P1;HPM_P2
2023/06/18 07:23:19;;;;;;;9.55;8.07;;;;;;;-145.79;38.44;76402.38;5254795;28;20400;-70
2023/06/18 07:25:50;;;;;;;10.00;8.73;;;;;;;-145.79;38.36;76393.88;5258138;28;20040;-70
2023/06/18 07:28:21;;;;;;;10.65;7.85;;;;;;;-145.79;38.58;76393.88;5259299;28;20557;-67
2023/06/18 07:30:53;;;;;;;9.32;8.32;;;;;;;-145.79;38.89;76383.28;5254891;28;20033;-69
2023/06/18 07:33:24;;;;;;;9.35;7.60;;;;;;;-145.79;38.76;76379.06;5242161;28;20025;-69
2023/06/18 07:35:55;;;;;;;8.70;7.90;;;;;;;-145.79;38.95;76374.81;5246822;28;20399;-69
2023/06/18 07:38:27;;;;;;;10.20;7.60;;;;;;;-145.79;39.05;76353.63;5256175;28;20032;-69
2023/06/18 07:40:58;;;;;;;10.70;8.82;;;;;;;-145.79;39.19;76362.09;5256996;28;20029;-68
2023/06/18 07:43:29;;;;;;;8.82;7.93;;;;;;;-145.79;39.31;76353.63;5257534;28;20032;-69
2023/06/18 07:46:01;;;;;;;12.73;7.85;;;;;;;-145.79;39.35;76338.78;5255409;28;20071;-69
2023/06/18 07:48:32;;;;;;;12.23;7.22;;;;;;;-145.79;38.90;76343.03;5239413;28;20069;-70
2023/06/18 07:51:03;;;;;;;9.10;7.85;;;;;;;-145.79;39.10;76334.56;5237368;28;20071;-69
2023/06/18 07:53:35;;;;;;;10.05;7.18;;;;;;;-145.79;39.15;76317.59;5238272;28;20034;-70
2023/06/18 07:56:06;;;;;;;13.57;7.47;;;;;;;-145.79;39.37;76315.47;5237450;28;20022;-69
2023/06/18 07:58:37;;;;;;;8.45;7.57;;;;;;;-145.79;39.23;76317.59;5238049;28;20025;-70
2023/06/18 08:01:09;;;;;;;9.32;7.95;;;;;;;-145.79;39.47;76317.59;5244812;28;20116;-70
2023/06/18 08:03:40;;;;;;;8.93;6.95;;;;;;;-145.79;39.46;76300.66;5258196;28;20037;-70
2023/06/18 08:06:11;;;;;;;12.60;7.63;;;;;;;-145.79;39.75;76294.28;5241382;28;20042;-70
2023/06/18 08:08:42;;;;;;;10.10;7.53;;;;;;;-145.79;39.62;76287.94;5256804;28;20437;-69
2023/06/18 08:11:15;;;;;;;11.48;7.70;;;;;;;-145.79;39.73;76268.84;5257306;28;20037;-69
2023/06/18 08:13:46;;;;;;;7.53;6.82;;;;;;;-145.79;39.46;76262.50;5257783;28;20021;-69
2023/06/18 08:16:17;;;;;;;8.48;6.57;;;;;;;-145.79;39.93;76254.03;5251985;28;20025;-69
2023/06/18 08:18:52;;;;;;;7.88;7.07;;;;;;;-145.79;39.34;76254.03;5255366;28;20048;-69
2023/06/18 08:21:23;;;;;;;9.40;6.80;;;;;;;-145.79;39.40;76258.25;5263123;28;20108;-68
2023/06/18 08:23:55;;;;;;;7.40;6.65;;;;;;;-145.79;39.78;76245.56;5256804;28;20494;-68
2023/06/18 08:26:26;;;;;;;7.57;6.82;;;;;;;-145.79;40.04;76245.56;5274557;28;20024;-70
2023/06/18 08:28:58;;;;;;;8.15;7.28;;;;;;;-145.79;39.64;76239.19;5258032;28;20025;-69
2023/06/18 08:31:30;;;;;;;7.65;6.95;;;;;;;-145.79;39.95;76232.84;5249514;28;20071;-69
2023/06/18 08:34:01;;;;;;;9.25;7.55;;;;;;;-145.79;39.55;76224.38;5237556;28;20029;-69
2023/06/18 08:36:32;;;;;;;8.82;7.47;;;;;;;-145.79;39.33;76218.00;5233058;28;20268;-69
2023/06/18 08:39:04;;;;;;;8.10;7.30;;;;;;;-145.79;39.11;76213.75;5221103;28;20030;-69
2023/06/18 08:41:35;;;;;;;7.53;6.78;;;;;;;-145.79;39.19;76213.75;5231724;28;20451;-70
2023/06/18 08:44:07;;;;;;;7.05;6.43;;;;;;;-145.79;39.41;76211.66;5263548;28;20039;-69
2023/06/18 08:46:39;;;;;;;8.27;7.55;;;;;;;-145.79;39.89;76215.88;5258629;28;20026;-69
2023/06/18 08:49:14;;;;;;;9.38;6.95;;;;;;;-145.79;39.76;76211.66;5264707;28;20028;-70
2023/06/18 08:51:46;;;;;;;;;;;;;;;-145.79;39.55;76190.47;5239451;28;20031;-69
2023/06/18 08:54:18;;;;;;;7.13;6.53;;;;;;;-145.79;40.02;76207.41;5250644;28;19917;-70
2023/06/18 08:57:07;;;;;;;9.23;7.20;;;;;;;-145.79;40.10;76207.41;5252274;28;20032;-69
2023/06/18 08:59:40;;;;;;;8.65;7.65;;;;;;;-145.79;40.09;76203.16;5246847;28;20500;-69
2023/06/18 09:02:18;;;;;;;8.40;7.18;;;;;;;-145.79;40.16;76209.53;5245009;28;20029;-70
2023/06/18 09:04:49;;;;;;;8.45;6.78;;;;;;;-145.79;39.84;76207.41;5241731;28;20079;-69
2023/06/18 09:07:23;;;;;;;10.60;7.70;;;;;;;-145.79;39.96;76205.28;5254560;28;20079;-69
2023/06/18 09:09:55;;;;;;;8.20;7.45;;;;;;;-145.79;39.72;76211.66;5247586;28;20027;-69
2023/06/18 09:12:26;;;;;;;8.70;7.28;;;;;;;-145.79;40.00;76211.66;5238267;28;20030;-70
2023/06/18 09:14:58;;;;;;;8.93;8.02;;;;;;;-145.79;40.25;76213.75;5228953;28;20021;-70
2023/06/18 09:17:29;;;;;;;9.32;7.55;;;;;;;-145.79;40.21;76198.94;5243198;28;20033;-70
2023/06/18 09:20:02;;;;;;;9.02;8.23;;;;;;;-145.79;39.80;76203.16;5242600;28;20029;-70
2023/06/18 09:22:45;;;;;;;8.50;7.70;;;;;;;-145.79;40.25;76194.69;5243077;28;20416;-69
2023/06/18 09:25:20;;;;;;;8.55;7.75;;;;;;;-145.79;40.23;76194.69;5242202;28;20032;-70
2023/06/18 09:27:55;;;;;;;9.18;8.35;;;;;;;-145.79;39.87;76198.94;5242881;28;20029;-69
2023/06/18 09:30:27;;;;;;;10.77;8.45;;;;;;;-145.79;40.37;76201.06;5234989;28;20037;-69
2023/06/18 09:32:59;;;;;;;10.48;8.95;;;;;;;-145.79;40.45;76198.94;5240874;28;20025;-69
2023/06/18 09:35:31;;;;;;;8.70;7.95;;;;;;;-145.79;40.53;76207.41;5222537;28;20424;-69
2023/06/18 09:38:09;;;;;;;9.90;8.90;;;;;;;-145.79;40.59;76203.16;5222248;28;20025;-69
2023/06/18 09:40:41;;;;;;;9.75;8.75;;;;;;;-145.79;41.20;76196.81;5233474;28;20059;-70
2023/06/18 09:43:13;;;;;;;11.35;10.15;;;;;;;-145.79;41.54;76203.16;5231516;28;20030;-69
2023/06/18 09:45:45;;;;;;;9.35;8.55;;;;;;;-145.79;42.45;76203.16;5233938;28;20033;-70
2023/06/18 09:48:16;;;;;;;12.07;9.10;;;;;;;-145.79;43.09;76194.69;5235475;28;20059;-69
2023/06/18 09:50:48;;;;;;;12.15;8.70;;;;;;;-145.79;43.91;76201.06;5239551;28;20025;-71
2023/06/18 09:53:19;;;;;;;8.18;7.25;;;;;;;-145.79;43.29;76198.94;5230688;28;20029;-70
2023/06/18 09:55:51;;;;;;;8.32;7.25;;;;;;;-145.79;43.65;76186.22;5232423;28;20032;-70
2023/06/18 09:58:39;;;;;;;9.30;6.43;;;;;;;-145.79;42.90;76194.69;5225689;28;20052;-70
2023/06/18 10:01:12;;;;;;;10.82;6.35;;;;;;;-145.79;44.37;76196.81;5223720;28;20026;-70
2023/06/18 10:03:44;;;;;;;9.23;7.45;;;;;;;-145.79;45.88;76209.53;5231689;28;20025;-70
2023/06/18 10:06:23;;;;;;;10.10;7.25;;;;;;;-145.79;46.11;76203.16;5241770;28;20455;-69
2023/06/18 10:08:57;;;;;;;8.68;7.93;;;;;;;-145.79;46.22;76203.16;5235623;28;20095;-71
2023/06/18 10:11:30;;;;;;;8.00;7.20;;;;;;;-145.79;47.77;76203.16;5231130;28;20026;-71
2023/06/18 10:14:11;;;;;;;80.30;72.90;;;;;;;-145.79;47.52;76194.69;5238624;28;20038;-71
2023/06/18 10:16:50;;;;;;;15.35;13.95;;;;;;;-145.79;45.71;76177.75;5234248;28;20092;-72
2023/06/18 10:19:27;;;;;;;10.65;9.68;;;;;;;-145.79;47.25;76177.75;5241764;28;20030;-71
2023/06/18 10:22:03;;;;;;;11.75;10.70;;;;;;;-145.79;45.64;76184.09;5222061;28;20160;-71
2023/06/18 10:25:06;;;;;;;10.15;7.60;;;;;;;-145.79;46.70;76169.25;5219015;28;20021;-70
2023/06/18 10:27:38;;;;;;;7.68;6.30;;;;;;;-145.79;44.95;76152.31;5225445;28;20116;-71
2023/06/18 10:30:11;;;;;;;8.95;8.07;;;;;;;-145.79;46.78;76158.66;5238638;28;20032;-70
2023/06/18 10:32:43;;;;;;;9.05;8.13;;;;;;;-145.79;46.80;76165.03;5239967;28;20025;-69
2023/06/18 10:35:16;;;;;;;8.93;8.02;;;;;;;-145.79;46.25;76165.03;5238048;28;20051;-70
2023/06/18 10:37:47;;;;;;;8.00;7.20;;;;;;;-145.79;46.21;76171.38;5232157;28;21641;-70
2023/06/18 10:40:19;;;;;;;9.07;8.18;;;;;;;-145.79;45.83;76171.38;5233256;28;20136;-70
2023/06/18 10:43:03;;;;;;;8.30;7.53;;;;;;;-145.79;46.41;76171.38;5238732;28;20380;-71
2023/06/18 10:45:34;;;;;;;8.73;7.90;;;;;;;-145.79;46.42;76175.63;5233353;28;20030;-71
2023/06/18 10:48:15;;;;;;;8.25;7.55;;;;;;;-145.79;45.83;76165.03;5241563;28;20036;-71
2023/06/18 10:51:15;;;;;;;8.48;7.78;;;;;;;-145.79;45.28;76158.66;5239107;28;20056;-71
2023/06/18 10:54:22;;;;;;;8.00;7.22;;;;;;;-145.79;44.78;76143.84;5240983;28;20033;-70
2023/06/18 10:56:58;;;;;;;8.43;7.63;;;;;;;-145.79;44.97;76143.84;5223754;28;20025;-71
2023/06/18 10:59:46;;;;;;;9.05;7.75;;;;;;;-145.79;45.68;76126.88;5219905;28;20427;-71
2023/06/18 11:02:31;;;;;;;7.90;7.10;;;;;;;-145.79;44.59;76129.00;5224665;28;20034;-70
2023/06/18 11:05:03;;;;;;;7.70;6.63;;;;;;;-145.79;46.49;76114.19;5226049;28;20124;-71
2023/06/18 11:07:39;;;;;;;8.20;7.50;;;;;;;-145.79;47.20;76114.19;5230358;28;20033;-69
2023/06/18 11:10:11;;;;;;;8.73;7.30;;;;;;;-145.79;47.63;76101.47;5232150;28;20021;-70
2023/06/18 11:12:43;;;;;;;7.70;6.95;;;;;;;-145.79;46.85;76109.94;5227847;28;20025;-70
2023/06/18 11:15:21;;;;;;;8.20;7.50;;;;;;;-145.79;45.42;76101.47;5230535;28;20080;-70
2023/06/18 11:17:55;;;;;;;7.38;6.68;;;;;;;-145.79;45.32;76092.97;5229356;28;20104;-71
2023/06/18 11:20:29;;;;;;;7.50;6.73;;;;;;;-145.79;45.37;76092.97;5238536;28;20080;-71
2023/06/18 11:23:03;;;;;;;8.23;6.82;;;;;;;-145.79;45.93;76092.97;5236133;28;20067;-70
2023/06/18 11:25:35;;;;;;;8.90;6.95;;;;;;;-145.79;46.19;76092.97;5227122;28;20548;-70
2023/06/18 11:28:07;;;;;;;8.40;7.40;;;;;;;-145.79;46.06;76101.47;5237173;28;20061;-70
2023/06/18 11:30:41;;;;;;;8.23;7.40;;;;;;;-145.79;46.13;76099.34;5233390;28;20113;-72
2023/06/18 11:33:12;;;;;;;6.68;6.07;;;;;;;-145.79;45.59;76105.69;5232239;28;20044;-73
2023/06/18 11:35:43;;;;;;;6.60;6.00;;;;;;;-145.79;45.92;76103.56;5240179;28;20025;-71
2023/06/18 11:38:16;;;;;;;7.95;7.28;;;;;;;-145.79;46.75;76092.97;5230745;28;20450;-70
2023/06/18 11:40:50;;;;;;;11.02;9.55;;;;;;;-145.79;46.42;76092.97;5228295;28;20120;-71
2023/06/18 11:43:21;;;;;;;8.35;7.65;;;;;;;-145.79;46.54;76090.88;5234918;28;20025;-71
2023/06/18 11:45:53;;;;;;;9.15;8.35;;;;;;;-145.79;46.55;76090.88;5233221;28;20021;-72
2023/06/18 11:48:25;;;;;;;8.45;7.75;;;;;;;-145.79;46.94;76071.78;5239422;28;20045;-71
2023/06/18 11:50:57;;;;;;;8.55;7.85;;;;;;;-145.79;46.46;76069.69;5238043;28;20380;-71
2023/06/18 11:53:29;;;;;;;23.13;21.00;;;;;;;-145.79;45.78;76069.69;5238709;28;20025;-71
2023/06/18 11:56:00;;;;;;;10.00;7.90;;;;;;;-145.79;45.75;76059.09;5235503;28;20481;-71
2023/06/18 11:58:32;;;;;;;12.60;9.13;;;;;;;-145.79;45.84;76033.66;5235697;28;20108;-71
2023/06/18 12:01:03;;;;;;;8.07;7.32;;;;;;;-145.79;45.96;76033.66;5236475;28;20076;-71
2023/06/18 12:03:35;;;;;;;9.00;8.18;;;;;;;-145.79;45.41;76023.06;5233749;28;20029;-71
2023/06/18 12:06:14;;;;;;;9.23;8.27;;;;;;;-145.79;45.30;76008.22;5238421;28;20030;-71
2023/06/18 12:08:46;;;;;;;8.45;7.70;;;;;;;-145.79;44.62;75995.50;5240009;28;20025;-70
2023/06/18 12:11:35;;;;;;;89.22;81.07;;;;;;;-145.79;44.39;75982.81;5242285;28;20095;-72
2023/06/18 12:14:13;;;;;;;11.90;10.90;;;;;;;-145.79;44.17;75972.22;5237348;28;20021;-72
2023/06/18 12:16:51;;;;;;;8.73;7.30;;;;;;;-145.79;43.51;75963.72;5241658;28;20029;-71
2023/06/18 12:19:25;;;;;;;7.68;7.00;;;;;;;-145.79;42.82;75959.50;5237134;28;20122;-72
2023/06/18 12:21:58;;;;;;;7.30;6.70;;;;;;;-145.79;43.05;75948.91;5236055;28;20084;-72
2023/06/18 12:24:30;;;;;;;8.45;7.65;;;;;;;-145.79;42.76;75938.31;5243743;28;20487;-72
2023/06/18 12:27:01;;;;;;;8.07;7.43;;;;;;;-145.79;42.59;75934.06;5241858;28;20058;-72
2023/06/18 12:29:39;;;;;;;10.93;8.10;;;;;;;-145.79;43.67;75910.75;5241282;28;20048;-71
2023/06/18 12:32:11;;;;;;;9.38;8.43;;;;;;;-145.79;44.13;75915.00;5237619;28;20052;-71
2023/06/18 12:34:43;;;;;;;9.60;8.80;;;;;;;-145.79;43.95;75910.75;5241508;28;20033;-71
2023/06/18 12:37:14;;;;;;;8.57;7.68;;;;;;;-145.79;44.36;75912.88;5237114;28;20419;-72
2023/06/18 12:40:08;;;;;;;10.05;8.43;;;;;;;-145.79;43.76;75902.28;5238418;28;20418;-71
2023/06/18 12:42:41;;;;;;;10.50;8.40;;;;;;;-145.79;43.57;75906.53;5239048;28;20484;-71
2023/06/18 12:45:13;;;;;;;8.70;8.00;;;;;;;-145.79;42.92;75902.28;5240482;28;20481;-71
2023/06/18 12:47:48;;;;;;;7.82;7.13;;;;;;;-145.79;42.84;75902.28;5240462;28;20034;-71
2023/06/18 12:50:25;;;;;;;6.72;6.13;;;;;;;-145.79;41.87;75898.03;5241138;28;20025;-71
2023/06/18 12:52:56;;;;;;;6.93;5.97;;;;;;;-145.79;41.66;75900.16;5234972;28;20029;-70
2023/06/18 12:55:28;;;;;;;6.65;6.05;;;;;;;-145.79;41.50;75891.69;5241593;28;20036;-70
2023/06/18 12:58:00;;;;;;;7.72;7.00;;;;;;;-145.79;41.49;75900.16;5242552;28;20014;-71
2023/06/18 13:00:31;;;;;;;7.82;7.13;;;;;;;-145.79;41.84;75898.03;5243011;28;20468;-71
2023/06/18 13:03:03;;;;;;;7.88;7.22;;;;;;;-145.79;41.86;75898.03;5241914;28;20488;-72
2023/06/18 13:05:37;;;;;;;7.45;6.70;;;;;;;-145.79;41.70;75893.81;5238571;28;20104;-72
2023/06/18 13:08:14;;;;;;;7.15;6.53;;;;;;;-145.79;41.53;75891.69;5240900;28;20472;-71
2023/06/18 13:10:47;;;;;;;7.28;6.65;;;;;;;-145.79;41.39;75893.81;5238743;28;20029;-71
2023/06/18 13:13:19;;;;;;;6.93;6.43;;;;;;;-145.79;41.32;75885.34;5238739;28;20457;-70
2023/06/18 13:15:51;;;;;;;29.42;26.73;;;;;;;-145.79;41.47;75876.84;5237804;28;20507;-71
2023/06/18 13:18:24;;;;;;;15.73;14.43;;;;;;;-145.79;41.23;75872.63;5241767;28;20043;-70
2023/06/18 13:20:56;;;;;;;9.65;8.82;;;;;;;-145.79;41.56;75876.84;5236919;28;20026;-70
2023/06/18 13:23:28;;;;;;;7.30;6.70;;;;;;;-145.79;41.62;75878.97;5242636;28;20524;-71
2023/06/18 13:25:59;;;;;;;25.20;22.88;;;;;;;-145.79;42.49;75878.97;5237257;28;20104;-71
2023/06/18 13:28:33;;;;;;;34.97;31.52;;;;;;;-145.79;42.06;75883.22;5241565;28;20033;-70
2023/06/18 13:31:04;;;;;;;10.32;7.90;;;;;;;-145.79;41.72;75893.81;5241530;28;20033;-70
2023/06/18 13:33:36;;;;;;;7.53;6.85;;;;;;;-145.79;41.94;75887.44;5240756;28;20029;-71
2023/06/18 13:36:09;;;;;;;7.90;7.10;;;;;;;-145.79;42.04;75881.09;5241819;28;20015;-71
2023/06/18 13:38:41;;;;;;;7.72;7.03;;;;;;;-145.79;41.55;75883.22;5232859;28;20504;-71
2023/06/18 13:41:12;;;;;;;7.20;6.53;;;;;;;-145.79;41.26;75870.50;5241618;28;20049;-71
2023/06/18 13:43:43;;;;;;;8.10;7.28;;;;;;;-145.79;41.29;75874.75;5237129;28;20034;-72
2023/06/18 13:46:15;;;;;;;8.23;7.53;;;;;;;-145.79;41.14;75864.16;5235933;28;20021;-72
2023/06/18 13:48:46;;;;;;;8.85;7.53;;;;;;;-145.79;40.95;75864.16;5240310;28;20396;-72
2023/06/18 13:51:17;;;;;;;7.93;7.22;;;;;;;-145.79;41.04;75859.91;5241229;28;20052;-71
2023/06/18 13:53:49;;;;;;;7.40;6.70;;;;;;;-145.79;41.19;75862.03;5240908;28;20201;-71
2023/06/18 13:56:23;;;;;;;7.45;6.85;;;;;;;-145.79;41.22;75864.16;5240853;28;20571;-67
2023/06/18 13:58:54;;;;;;;8.10;7.40;;;;;;;-145.79;41.41;75864.16;5239820;28;20025;-67
2023/06/18 14:01:25;;;;;;;126.32;113.90;;;;;;;-145.79;41.81;75849.31;5226424;28;20035;-68
2023/06/18 14:03:59;;;;;;;10.73;9.82;;;;;;;-145.79;41.29;75855.66;5234596;28;20043;-68
2023/06/18 14:06:31;;;;;;;9.38;8.48;;;;;;;-145.79;41.06;75842.97;5233984;28;20501;-68
2023/06/18 14:09:02;;;;;;;8.00;7.20;;;;;;;-145.79;41.31;75842.97;5237648;28;20021;-68
2023/06/18 14:11:34;;;;;;;7.57;6.95;;;;;;;-145.79;41.44;75842.97;5240426;28;20120;-68
2023/06/18 14:14:05;;;;;;;7.28;6.68;;;;;;;-145.79;41.23;75840.84;5236037;28;20051;-69
2023/06/18 14:16:36;;;;;;;8.02;7.25;;;;;;;-145.79;40.87;75855.66;5240010;28;20021;-68
2023/06/18 14:19:16;;;;;;;8.80;7.85;;;;;;;-145.79;40.71;75847.19;5237257;28;20465;-68
2023/06/18 14:21:48;;;;;;;8.10;7.40;;;;;;;-145.79;40.56;75842.97;5239996;28;20052;-70
2023/06/18 14:24:19;;;;;;;8.90;8.20;;;;;;;-145.79;40.22;75849.31;5239744;28;20466;-70
2023/06/18 14:26:53;;;;;;;9.10;8.25;;;;;;;-145.79;40.42;75855.66;5241248;28;20026;-69
2023/06/18 14:29:24;;;;;;;9.40;7.70;;;;;;;-145.79;40.70;75859.91;5240865;28;20117;-70
2023/06/18 14:31:55;;;;;;;8.90;8.13;;;;;;;-145.79;40.62;75855.66;5238508;28;20104;-70
2023/06/18 14:34:27;;;;;;;8.80;7.85;;;;;;;-145.79;40.80;75857.78;5241481;28;20032;-70
2023/06/18 14:36:58;;;;;;;8.95;8.07;;;;;;;-145.79;40.90;75859.91;5236680;28;20021;-67
2023/06/18 14:39:29;;;;;;;9.10;8.25;;;;;;;-145.79;40.71;75862.03;5241240;28;20048;-68
2023/06/18 14:42:01;;;;;;;8.57;7.78;;;;;;;-145.79;40.93;75868.38;5237755;28;20036;-67
2023/06/18 14:44:33;;;;;;;8.75;8.05;;;;;;;-145.79;40.73;75872.63;5239927;28;20032;-67
2023/06/18 14:47:04;;;;;;;9.40;8.32;;;;;;;-145.79;40.64;75881.09;5239761;28;20480;-67
2023/06/18 14:49:35;;;;;;;9.65;7.40;;;;;;;-145.79;40.95;75876.84;5239222;28;20426;-67
2023/06/18 14:52:07;;;;;;;10.43;9.45;;;;;;;-145.79;40.77;75878.97;5240019;28;20056;-68
2023/06/18 14:54:40;;;;;;;10.18;8.55;;;;;;;-145.79;40.62;75883.22;5238687;28;20021;-68
2023/06/18 14:57:12;;;;;;;9.98;9.15;;;;;;;-145.79;40.63;75876.84;5236649;28;20465;-68
2023/06/18 14:59:43;;;;;;;9.10;8.30;;;;;;;-145.79;40.67;75872.63;5222233;28;20041;-67
2023/06/18 15:02:15;;;;;;;9.15;8.35;;;;;;;-145.79;40.64;75864.16;5235880;28;20053;-68
2023/06/18 15:04:46;;;;;;;10.40;8.73;;;;;;;-145.79;40.06;75830.25;5238910;28;20108;-68
2023/06/18 15:07:17;;;;;;;8.90;8.05;;;;;;;-145.79;39.66;75777.28;5240858;28;20052;-69
2023/06/18 15:09:52;;;;;;;10.88;8.90;;;;;;;-145.79;39.27;75743.38;5232911;28;20022;-71
2023/06/18 15:12:23;;;;;;;11.77;8.37;;;;;;;-145.79;39.33;75741.25;5220534;28;20032;-71
2023/06/18 15:14:54;;;;;;;8.10;7.40;;;;;;;-145.79;39.56;75711.59;5221017;28;20030;-70
2023/06/18 15:17:26;;;;;;;9.30;7.50;;;;;;;-145.79;39.32;75709.47;5228080;28;20034;-70
2023/06/18 15:19:57;;;;;;;11.35;8.20;;;;;;;-145.79;38.97;75720.06;5241078;28;20033;-70
2023/06/18 15:22:28;;;;;;;9.25;8.30;;;;;;;-145.79;38.90;75724.31;5240552;28;20382;-70
2023/06/18 15:25:00;;;;;;;8.68;7.95;;;;;;;-145.79;39.00;75743.38;5240666;28;20021;-70
2023/06/18 15:27:31;;;;;;;9.15;8.25;;;;;;;-145.79;38.86;75739.13;5229220;28;20108;-70
2023/06/18 15:30:05;;;;;;;9.70;8.77;;;;;;;-145.79;38.67;75741.25;5220319;28;20029;-69
2023/06/18 15:32:36;;;;;;;9.68;8.75;;;;;;;-145.79;38.78;75722.19;5219820;28;20026;-70
2023/06/18 15:35:08;;;;;;;9.88;7.85;;;;;;;-145.79;38.49;75724.31;5238747;28;20087;-69
2023/06/18 15:37:39;;;;;;;10.02;9.02;;;;;;;-145.79;38.15;75711.59;5238607;28;20034;-69
2023/06/18 15:40:10;;;;;;;8.30;7.57;;;;;;;-145.79;37.95;75724.31;5224058;28;20397;-70
2023/06/18 15:42:42;;;;;;;9.13;8.23;;;;;;;-145.79;37.87;75715.81;5237671;28;20037;-69
2023/06/18 15:45:13;;;;;;;10.27;8.75;;;;;;;-145.79;37.47;75726.41;5235667;28;20072;-70
2023/06/18 15:47:44;;;;;;;9.30;8.10;;;;;;;-145.79;37.76;75730.66;5245004;28;20040;-70
2023/06/18 15:50:15;;;;;;;7.78;6.97;;;;;;;-145.79;37.66;75732.78;5227964;28;20036;-71
2023/06/18 15:52:47;;;;;;;8.90;7.93;;;;;;;-145.79;37.87;75724.31;5223119;28;20037;-72
2023/06/18 15:55:18;;;;;;;8.23;7.32;;;;;;;-145.79;37.77;75734.91;5224362;28;20032;-71
2023/06/18 15:57:49;;;;;;;7.82;7.13;;;;;;;-145.79;37.39;75743.38;5224271;28;20109;-70
2023/06/18 16:00:21;;;;;;;9.35;7.70;;;;;;;-145.79;37.32;75739.13;5226968;28;20060;-71
2023/06/18 16:02:52;;;;;;;7.47;6.35;;;;;;;-145.79;37.24;75749.72;5244424;28;20029;-71
2023/06/18 16:05:23;;;;;;;7.13;6.43;;;;;;;-145.79;37.65;75758.19;5237383;28;20048;-71
2023/06/18 16:07:55;;;;;;;9.55;7.30;;;;;;;-145.79;37.40;75760.31;5238130;28;20029;-71
2023/06/18 16:10:26;;;;;;;7.47;6.80;;;;;;;-145.79;38.01;75758.19;5244018;28;20022;-71
2023/06/18 16:12:58;;;;;;;6.88;6.28;;;;;;;-145.79;38.11;75758.19;5243676;28;20044;-72
2023/06/18 16:15:29;;;;;;;10.15;7.72;;;;;;;-145.79;37.92;75762.44;5243800;28;20523;-69
2023/06/18 16:18:05;;;;;;;8.60;7.68;;;;;;;-145.79;38.33;75756.09;5239729;28;20093;-69
2023/06/18 16:20:37;;;;;;;8.13;7.03;;;;;;;-145.79;38.07;75758.19;5241414;28;20024;-70
2023/06/18 16:23:08;;;;;;;7.50;6.90;;;;;;;-145.79;38.48;75749.72;5242126;28;20038;-71
2023/06/18 16:25:40;;;;;;;8.45;7.50;;;;;;;-145.79;38.53;75753.97;5243904;28;20025;-70
2023/06/18 16:28:11;;;;;;;7.95;7.25;;;;;;;-145.79;38.37;75764.56;5239997;28;20121;-70
2023/06/18 16:30:42;;;;;;;8.18;7.38;;;;;;;-145.79;38.25;75762.44;5240738;28;20032;-70
2023/06/18 16:33:13;;;;;;;8.57;7.47;;;;;;;-145.79;38.30;75764.56;5242117;28;20037;-70
2023/06/18 16:35:45;;;;;;;8.00;7.10;;;;;;;-145.79;38.56;75764.56;5238753;28;20036;-70
2023/06/18 16:38:16;;;;;;;9.02;7.05;;;;;;;-145.79;38.19;75749.72;5243490;28;20033;-70
2023/06/18 16:40:48;;;;;;;8.18;7.38;;;;;;;-145.79;38.11;75756.09;5238340;28;20021;-70
2023/06/18 16:43:20;;;;;;;8.68;7.10;;;;;;;-145.79;38.26;75753.97;5237585;28;20086;-71
2023/06/18 16:45:51;;;;;;;8.18;7.47;;;;;;;-145.79;38.14;75749.72;5241057;28;20028;-71
2023/06/18 16:48:22;;;;;;;8.50;7.20;;;;;;;-145.79;37.72;75749.72;5243087;28;20032;-71
2023/06/18 16:50:54;;;;;;;9.80;6.93;;;;;;;-145.79;37.27;75745.50;5243520;28;20029;-70
2023/06/18 16:53:25;;;;;;;7.68;6.80;;;;;;;-145.79;37.77;75745.50;5240571;28;20084;-70
